createdAt,value
2023-06-20T00:00:01.630Z,20.11
2023-06-20T00:05:00.663Z,20.07
2023-06-20T00:10:00.742Z,20.07
2023-06-20T00:15:00.609Z,20.07
2023-06-20T00:20:00.632Z,20.05
2023-06-20T00:25:04.642Z,19.97
2023-06-20T00:30:00.665Z,19.87
2023-06-20T00:35:00.778Z,19.79
2023-06-20T00:40:00.582Z,19.73
2023-06-20T00:45:00.909Z,19.69
2023-06-20T00:50:00.720Z,19.69
2023-06-20T00:55:00.593Z,19.71
2023-06-20T01:00:01.076Z,19.72
2023-06-20T01:05:00.716Z,19.72
2023-06-20T01:10:11.307Z,19.68
2023-06-20T01:15:09.767Z,19.63
2023-06-20T01:20:10.534Z,19.59
2023-06-20T01:25:05.132Z,19.57
2023-06-20T01:30:08.934Z,19.56
2023-06-20T01:35:08.691Z,19.56
2023-06-20T01:40:02.815Z,19.62
2023-06-20T01:45:04.275Z,19.66
2023-06-20T01:50:02.555Z,19.69
2023-06-20T01:55:03.655Z,19.68
2023-06-20T02:00:02.904Z,19.70
2023-06-20T02:05:02.505Z,19.69
2023-06-20T02:10:01.725Z,19.68
2023-06-20T02:15:00.974Z,19.70
2023-06-20T02:20:00.840Z,19.73
2023-06-20T02:25:06.266Z,19.75
2023-06-20T02:30:03.105Z,19.77
2023-06-20T02:35:02.360Z,19.81
2023-06-20T02:40:00.784Z,19.83
2023-06-20T02:45:01.058Z,19.89
2023-06-20T02:50:10.525Z,19.91
2023-06-20T02:55:10.872Z,19.92
2023-06-20T03:00:04.663Z,19.99
2023-06-20T03:05:03.560Z,20.01
2023-06-20T03:10:01.343Z,19.95
2023-06-20T03:15:00.587Z,19.86
2023-06-20T03:20:03.134Z,19.83
2023-06-20T03:25:00.616Z,19.78
2023-06-20T03:30:03.013Z,19.80
2023-06-20T03:35:00.574Z,19.80
2023-06-20T03:40:00.567Z,19.87
2023-06-20T03:45:00.596Z,19.87
2023-06-20T03:50:00.605Z,19.92
2023-06-20T03:55:00.565Z,19.95
2023-06-20T04:00:02.639Z,19.96
2023-06-20T04:05:00.679Z,20.00
2023-06-20T04:10:00.566Z,20.03
2023-06-20T04:15:00.578Z,20.05
2023-06-20T04:20:00.590Z,20.08
2023-06-20T04:25:00.631Z,20.10
2023-06-20T04:30:00.579Z,20.12
2023-06-20T04:35:00.541Z,20.16
2023-06-20T04:40:00.586Z,20.24
2023-06-20T04:45:00.552Z,20.34
2023-06-20T04:50:00.579Z,20.43
2023-06-20T04:55:00.577Z,20.54
2023-06-20T05:00:00.986Z,20.61
2023-06-20T05:05:00.546Z,20.67
2023-06-20T05:10:00.596Z,20.69
2023-06-20T05:15:00.563Z,20.72
2023-06-20T05:20:00.543Z,20.79
2023-06-20T05:25:00.633Z,20.87
2023-06-20T05:30:00.543Z,21.01
2023-06-20T05:35:00.923Z,21.24
2023-06-20T05:40:01.618Z,21.54
2023-06-20T05:45:00.674Z,21.78
2023-06-20T05:50:00.665Z,22.07
2023-06-20T05:55:00.668Z,22.29
2023-06-20T06:00:01.796Z,22.48
2023-06-20T06:05:00.660Z,23.05
2023-06-20T06:10:01.759Z,23.41
2023-06-20T06:15:00.566Z,23.51
2023-06-20T06:20:00.790Z,23.79
2023-06-20T06:25:00.536Z,24.01
2023-06-20T06:30:01.056Z,24.43
2023-06-20T06:35:01.026Z,25.10
2023-06-20T06:40:01.500Z,24.80
2023-06-20T06:45:00.968Z,24.37
2023-06-20T06:50:00.574Z,24.54
2023-06-20T06:55:00.775Z,24.80
2023-06-20T07:00:01.015Z,24.64
2023-06-20T07:05:00.623Z,24.55
2023-06-20T07:10:00.582Z,24.15
2023-06-20T07:15:00.582Z,24.03
2023-06-20T07:20:00.582Z,23.88
2023-06-20T07:25:00.652Z,23.93
2023-06-20T07:30:00.584Z,24.28
2023-06-20T07:35:00.578Z,25.14
2023-06-20T07:40:01.018Z,26.01
2023-06-20T07:45:00.624Z,26.58
2023-06-20T07:50:00.581Z,27.14
2023-06-20T07:55:00.588Z,27.36
2023-06-20T08:00:00.822Z,27.89
2023-06-20T08:05:00.559Z,28.43
2023-06-20T08:10:00.823Z,28.42
2023-06-20T08:15:00.543Z,28.37
2023-06-20T08:20:00.763Z,28.60
2023-06-20T08:25:00.762Z,28.76
2023-06-20T08:30:00.700Z,29.06
2023-06-20T08:35:00.591Z,29.25
2023-06-20T08:40:00.664Z,29.46
2023-06-20T08:45:01.124Z,29.47
2023-06-20T08:50:00.869Z,28.90
2023-06-20T08:55:01.170Z,28.78
2023-06-20T09:00:00.822Z,28.67
2023-06-20T09:05:02.201Z,29.13
2023-06-20T09:10:01.242Z,29.46
2023-06-20T09:15:00.648Z,29.71
2023-06-20T09:20:00.977Z,29.19
2023-06-20T09:25:04.363Z,29.45
2023-06-20T09:30:00.573Z,29.93
2023-06-20T09:35:03.476Z,30.14
2023-06-20T09:40:05.027Z,29.93
2023-06-20T09:45:00.614Z,30.03
2023-06-20T09:50:04.766Z,29.99
2023-06-20T09:55:04.397Z,30.17
2023-06-20T10:00:01.971Z,29.83
2023-06-20T10:05:01.244Z,29.39
2023-06-20T10:10:01.465Z,29.99
2023-06-20T10:15:03.079Z,29.94
2023-06-20T10:20:00.867Z,30.45
2023-06-20T10:25:01.754Z,30.75
2023-06-20T10:30:00.555Z,30.92
2023-06-20T10:35:05.411Z,30.35
2023-06-20T10:40:00.594Z,30.78
2023-06-20T10:45:19.896Z,30.52
2023-06-20T10:50:00.647Z,30.87
2023-06-20T10:55:00.581Z,30.80
2023-06-20T11:00:05.312Z,30.73
2023-06-20T11:05:01.196Z,31.04
2023-06-20T11:10:13.780Z,31.69
2023-06-20T11:15:20.454Z,31.55
2023-06-20T11:20:00.662Z,31.51
2023-06-20T11:25:00.544Z,32.09
2023-06-20T11:30:00.576Z,32.30
2023-06-20T11:35:00.864Z,32.15
2023-06-20T11:40:00.719Z,32.41
2023-06-20T11:45:11.050Z,32.95
2023-06-20T11:50:00.589Z,33.04
2023-06-20T11:55:00.555Z,32.78
2023-06-20T12:00:01.065Z,33.40
2023-06-20T12:05:02.970Z,33.17
2023-06-20T12:10:08.254Z,33.52
2023-06-20T12:15:00.561Z,33.32
2023-06-20T12:20:00.574Z,33.35
2023-06-20T12:25:00.543Z,33.90
2023-06-20T12:30:00.585Z,33.49
2023-06-20T12:35:00.626Z,33.40
2023-06-20T12:40:00.561Z,34.45
2023-06-20T12:45:00.657Z,35.12
2023-06-20T12:50:00.592Z,34.45
2023-06-20T12:55:00.653Z,34.06
2023-06-20T13:00:01.739Z,33.83
2023-06-20T13:05:01.114Z,33.48
2023-06-20T13:10:00.637Z,33.43
2023-06-20T13:15:07.606Z,33.30
2023-06-20T13:20:00.584Z,33.43
2023-06-20T13:25:00.668Z,33.25
2023-06-20T13:30:00.608Z,33.81
2023-06-20T13:35:00.553Z,34.30
2023-06-20T13:40:00.571Z,34.62
2023-06-20T13:45:00.578Z,34.92
2023-06-20T13:50:00.573Z,34.95
2023-06-20T13:55:00.962Z,34.64
2023-06-20T14:00:02.391Z,34.36
2023-06-20T14:05:00.546Z,33.63
2023-06-20T14:10:01.968Z,32.52
2023-06-20T14:15:00.793Z,31.87
2023-06-20T14:20:00.626Z,31.44
2023-06-20T14:25:00.597Z,31.00
2023-06-20T14:30:00.708Z,30.70
2023-06-20T14:35:00.606Z,30.50
2023-06-20T14:40:00.630Z,30.24
2023-06-20T14:45:00.594Z,29.98
2023-06-20T14:50:00.580Z,29.78
2023-06-20T14:55:00.548Z,29.52
2023-06-20T15:00:00.934Z,29.42
2023-06-20T15:05:01.245Z,29.10
2023-06-20T15:10:01.064Z,24.76
2023-06-20T15:15:00.632Z,22.45
2023-06-20T15:20:00.667Z,21.39
2023-06-20T15:25:00.600Z,20.95
2023-06-20T15:30:00.645Z,20.81
2023-06-20T15:35:00.606Z,20.56
2023-06-20T15:40:00.704Z,20.46
2023-06-20T15:45:00.634Z,20.47
2023-06-20T15:50:01.490Z,20.52
2023-06-20T15:55:00.549Z,20.80
2023-06-20T16:00:02.097Z,20.84
2023-06-20T16:05:00.616Z,20.61
2023-06-20T16:10:00.706Z,20.23
2023-06-20T16:15:00.690Z,20.07
2023-06-20T16:20:00.562Z,19.84
2023-06-20T16:25:00.672Z,19.76
2023-06-20T16:30:00.608Z,19.76
2023-06-20T16:35:00.560Z,19.78
2023-06-20T16:40:00.634Z,19.77
2023-06-20T16:45:00.975Z,19.72
2023-06-20T16:50:00.602Z,19.78
2023-06-20T16:55:00.582Z,19.79
2023-06-20T17:00:00.969Z,19.79
2023-06-20T17:05:00.683Z,19.83
2023-06-20T17:10:00.581Z,19.94
2023-06-20T17:15:00.703Z,19.91
2023-06-20T17:20:00.568Z,19.99
2023-06-20T17:25:00.646Z,20.12
2023-06-20T17:30:00.705Z,20.14
2023-06-20T17:35:00.653Z,20.12
2023-06-20T17:40:00.562Z,20.14
2023-06-20T17:45:01.223Z,20.12
2023-06-20T17:50:00.826Z,20.10
2023-06-20T17:55:00.575Z,20.05
2023-06-20T18:00:01.869Z,20.06
2023-06-20T18:05:00.605Z,20.07
2023-06-20T18:10:00.607Z,20.06
2023-06-20T18:15:00.775Z,20.00
2023-06-20T18:20:00.741Z,19.95
2023-06-20T18:25:00.556Z,19.96
2023-06-20T18:30:00.579Z,20.07
2023-06-20T18:35:00.735Z,20.11
2023-06-20T18:40:00.676Z,20.01
2023-06-20T18:45:00.569Z,19.95
2023-06-20T18:50:00.610Z,19.93
2023-06-20T18:55:00.600Z,19.94
2023-06-20T19:00:02.243Z,19.96
2023-06-20T19:05:01.276Z,19.94
2023-06-20T19:10:00.639Z,19.90
2023-06-20T19:15:00.619Z,19.85
2023-06-20T19:20:00.568Z,19.87
2023-06-20T19:25:00.894Z,19.84
2023-06-20T19:30:00.596Z,19.76
2023-06-20T19:35:00.984Z,19.72
2023-06-20T19:40:02.615Z,19.69
2023-06-20T19:45:00.734Z,19.67
2023-06-20T19:50:00.583Z,19.67
2023-06-20T19:55:00.606Z,19.65
2023-06-20T20:00:01.757Z,19.64
2023-06-20T20:05:00.697Z,19.63
2023-06-20T20:10:00.736Z,19.57
2023-06-20T20:15:00.576Z,19.52
2023-06-20T20:20:00.625Z,19.44
2023-06-20T20:30:00.663Z,19.22
2023-06-20T20:35:00.573Z,19.12
2023-06-20T20:40:00.738Z,19.05
2023-06-20T20:45:00.652Z,19.04
2023-06-20T20:50:00.723Z,18.99
2023-06-20T20:55:00.571Z,18.93
2023-06-20T21:00:01.790Z,18.89
2023-06-20T21:05:00.585Z,18.84
2023-06-20T21:10:00.585Z,18.83
2023-06-20T21:15:00.576Z,18.83
2023-06-20T21:20:00.629Z,18.79
2023-06-20T21:25:01.447Z,18.74
2023-06-20T21:30:00.625Z,18.71
2023-06-20T21:35:00.634Z,18.67
2023-06-20T21:40:00.578Z,18.66
2023-06-20T21:45:00.562Z,18.65
2023-06-20T21:50:00.623Z,18.65
2023-06-20T21:55:00.570Z,18.65
2023-06-20T22:00:02.248Z,18.65
2023-06-20T22:05:00.576Z,18.65
2023-06-20T22:10:04.406Z,18.65
2023-06-20T22:15:01.146Z,18.63
2023-06-20T22:20:00.573Z,18.60
2023-06-20T22:25:00.695Z,18.55
2023-06-20T22:30:00.937Z,18.50
2023-06-20T22:35:00.831Z,18.53
2023-06-20T22:40:00.618Z,18.53
2023-06-20T22:45:00.691Z,18.48
2023-06-20T22:50:00.692Z,18.40
2023-06-20T22:55:00.656Z,18.31
2023-06-20T23:00:02.455Z,18.23
2023-06-20T23:05:00.568Z,18.16
2023-06-20T23:10:00.575Z,18.09
2023-06-20T23:15:00.659Z,18.04
2023-06-20T23:20:00.580Z,17.94
2023-06-20T23:25:00.565Z,17.88
2023-06-20T23:30:00.562Z,17.82
2023-06-20T23:35:00.622Z,17.78
2023-06-20T23:40:00.926Z,17.74
2023-06-20T23:45:00.548Z,17.67
2023-06-20T23:50:00.829Z,17.61
2023-06-20T23:55:00.591Z,17.56
